Skip Navigation LinksHome page > Tools > METAR decoder Skip Navigation Links

METAR decoder

Settings

METAR

Chicago O'Hare Intl, Chicago

For information only: do not use for flight planning or navigation.
Latest weather
Observation time Saturday, August 23, 2014 4:16 AM CDT
Local time Saturday, August 23, 2014 4:28 AM CDT
Flight conditions Low Instrument Meteorological Conditions
Winds
Wind direction Northeast (50°)
Wind speed 5 mph
Visibility 2 mi.
Present weather mist
Sky condition
Ceiling 200 ft. overcast
Cloud layer overcast 200 ft.
Temperature 73°F
Dewpoint 70°F
Altimeter 29.97 in.Hg
Derived measurements
Relative humidity 89%
Density altitude 1878 ft.
Remarks
Special weather observation.
METAR SPUS31 KWBC 230920 SPECI KORD 230916Z 05004KT 2SM R10L/2600VP6000FT BR OVC002 23/21 A2997

InnerDrive.Weather 4.0.5341.0 Release CLR 4.0.30319.34014
Copyright ©2014 Inner Drive Technology. All rights reserved. Portions Copyright ©1986-2014 David Braverman.

Find weather

Site navigation


Skip Navigation Links

Place info

Page info

PayPal - The safer, easier way to pay online!

Return home.

Copyright ©2014 Inner Drive Technology. Purveyors of fine, hand-crafted computer software. Page printed 2014-08-23T09:28:25 UTC.